Atmautluak, Alaska
Current Conditions -  °F | °C
As of 11:53 PM on Sunday 19 Oct 2014 (Local Time) from PABE Reporting Station
Light Snow Light Snow  
Wind Chill: 17°   Ceiling: 7500
Heat Index: 24°   Visibility: 8mi
Dew Point: 23°   Wind: 6mph
Humidity: 96%   Direction: 340°NNW
Pressure: 29.28"   Gusts: NA
Location:  60.7494°N, 161.727°W
Report Text: PABE 200753Z 34005KT 8SM -SN SCT050 OVC075 M04/M05 A2928 RMK AO2 SNB49 SLP917 P0000 T10441050
Loading
Personal Weather Stations






























Interactive Weather Map New forecast layout! Learn more

10-Day Weather Forecast

Advertisements
Track Severe Weather on mobile